Observations for CATANIA FONTANAROSA, Italy (LICC)

LICC 180650Z 03003KT 340V140 CAVOK 26/17 Q1013  
LICC 180620Z VRB02KT CAVOK 26/16 Q1013  
LICC 180550Z VRB02KT CAVOK 25/15 Q1013  
LICC 180520Z VRB02KT CAVOK 23/16 Q1013  
LICC 180450Z 26003KT 230V340 CAVOK 21/16 Q1013  
LICC 180420Z 28006KT CAVOK 19/17 Q1012  
LICC 180350Z 26007KT CAVOK 18/17 Q1013  
LICC 180320Z 27003KT 230V340 CAVOK 19/18 Q1012  
LICC 180250Z 23006KT CAVOK 21/19 Q1012  
LICC 180220Z 26006KT CAVOK 20/19 Q1012  
LICC 180150Z 25007KT CAVOK 21/20 Q1012  
LICC 180050Z 28006KT CAVOK 21/19 Q1013  
LICC 180020Z 25006KT CAVOK 20/18 Q1013  
LICC 172350Z 26005KT CAVOK 21/18 Q1013  
LICC 172320Z 27004KT CAVOK 21/18 Q1013  
LICC 172250Z 08005KT CAVOK 22/21 Q1013  
LICC 172220Z 07008KT CAVOK 23/21 Q1013  
LICC 172150Z 06008KT CAVOK 24/19 Q1013  
LICC 172120Z 06010KT CAVOK 25/19 Q1013  
LICC 172050Z 07008KT CAVOK 24/19 Q1013  
LICC 172020Z 07007KT CAVOK 24/19 Q1013  
LICC 171950Z 07008KT CAVOK 25/18 Q1012  
LICC 171920Z 07007KT CAVOK 25/17 Q1012  
LICC 171850Z 07007KT CAVOK 26/17 Q1012  
LICC 171820Z 06009KT CAVOK 26/18 Q1012  
LICC 171750Z 07011KT CAVOK 26/19 Q1012  
LICC 171720Z 07011KT CAVOK 26/18 Q1012  
LICC 171650Z 07012KT CAVOK 27/18 Q1012  
LICC 171620Z 07012KT CAVOK 28/18 Q1012  
LICC 171550Z 07012KT CAVOK 27/19 Q1011  
LICC 171520Z 07013KT CAVOK 27/20 Q1012  
LICC 171450Z 07014KT CAVOK 28/18 Q1012  
LICC 171420Z 07013KT CAVOK 29/17 Q1012  
LICC 171350Z 06014KT CAVOK 29/17 Q1012  
LICC 171320Z 06012KT CAVOK 30/17 Q1012  
LICC 171250Z 06013KT CAVOK 30/16 Q1012  
LICC 171220Z 07013KT CAVOK 30/16 Q1012  
LICC 171150Z 06017KT CAVOK 29/17 Q1012  
LICC 171120Z 07017KT CAVOK 28/18 Q1012  
LICC 171050Z 06016KT CAVOK 29/18 Q1012  
LICC 171020Z 06016KT CAVOK 29/18 Q1012  
LICC 170950Z 07010KT CAVOK 29/15 Q1013  
LICC 170920Z 06009KT CAVOK 27/15 Q1013  
LICC 170850Z 09009KT CAVOK 27/16 Q1013  
LICC 170820Z 08007KT CAVOK 28/14 Q1013  
LICC 170750Z VRB04KT CAVOK 29/15 Q1013  
LICC 170720Z 11005KT 080V160 CAVOK 28/14 Q1013  
LICC 170650Z 13004KT 110V170 CAVOK 27/15 Q1013  
LICC 170620Z VRB03KT CAVOK 25/17 Q1013